Time;durP1;ratioP1;P1;durP2;ratioP2;P2;SDS_P1;SDS_P2;PMS_P1;PMS_P2;Temp;Humidity;BMP_temperature;BMP_pressure;BME280_temperature;BME280_humidity;BME280_pressure;Samples;Min_cycle;Max_cycle;Signal;HPM_P1;HPM_P2
2021/07/23 00:02:12;;;;;;;8.15;7.32;;;;;;;;;;5122541;27;20019;-83
2021/07/23 00:04:38;;;;;;;8.95;7.32;;;;;;;;;;5121471;28;20020;-83
2021/07/23 00:07:04;;;;;;;6.97;6.28;;;;;;;;;;5120565;28;20024;-83
2021/07/23 00:09:30;;;;;;;7.40;6.57;;;;;;;;;;5119902;28;20032;-82
2021/07/23 00:11:57;;;;;;;7.57;6.80;;;;;;;;;;5120939;28;20030;-83
2021/07/23 00:14:25;;;;;;;6.53;5.93;;;;;;;;;;5121320;28;20079;-83
2021/07/23 00:16:51;;;;;;;7.03;6.25;;;;;;;;;;5120826;28;20020;-83
2021/07/23 00:19:17;;;;;;;7.40;6.57;;;;;;;;;;5119164;28;20083;-80
2021/07/23 00:21:43;;;;;;;8.82;7.63;;;;;;;;;;5120203;28;20077;-82
2021/07/23 00:24:09;;;;;;;8.52;6.97;;;;;;;;;;5102766;28;20081;-81
2021/07/23 00:26:35;;;;;;;10.95;8.52;;;;;;;;;;5101750;28;20155;-81
2021/07/23 00:29:01;;;;;;;9.82;8.20;;;;;;;;;;5102475;28;20024;-82
2021/07/23 00:31:27;;;;;;;10.40;8.63;;;;;;;;;;5121000;27;20026;-83
2021/07/23 00:33:53;;;;;;;8.77;7.63;;;;;;;;;;5145308;27;20034;-81
2021/07/23 00:36:19;;;;;;;10.40;8.73;;;;;;;;;;5115325;27;20035;-80
2021/07/23 00:38:46;;;;;;;10.32;8.30;;;;;;;;;;5107718;28;20070;-81
2021/07/23 00:41:12;;;;;;;10.48;8.65;;;;;;;;;;5106825;28;20024;-82
2021/07/23 00:43:38;;;;;;;10.43;8.80;;;;;;;;;;5104391;28;20026;-81
2021/07/23 00:46:04;;;;;;;9.35;7.93;;;;;;;;;;5106635;28;20032;-82
2021/07/23 00:48:30;;;;;;;9.52;8.32;;;;;;;;;;5108914;28;20023;-81
2021/07/23 00:50:56;;;;;;;8.55;7.50;;;;;;;;;;5108346;28;20058;-80
2021/07/23 00:53:22;;;;;;;9.95;7.85;;;;;;;;;;5101650;28;20084;-80
2021/07/23 00:55:54;;;;;;;9.02;7.53;;;;;;;;;;5098745;28;20082;-81
2021/07/23 00:58:23;;;;;;;11.07;8.77;;;;;;;;;;5100396;28;20071;-82
2021/07/23 01:00:49;;;;;;;10.18;8.35;;;;;;;;;;5114661;28;20011;-81
2021/07/23 01:03:15;;;;;;;10.77;8.25;;;;;;;;;;5131719;28;20115;-82
2021/07/23 01:05:41;;;;;;;9.27;8.07;;;;;;;;;;5129046;28;20019;-81
2021/07/23 01:08:07;;;;;;;9.25;8.10;;;;;;;;;;5132286;28;20098;-78
2021/07/23 01:10:37;;;;;;;9.35;8.32;;;;;;;;;;5135679;28;20071;-78
2021/07/23 01:13:03;;;;;;;9.57;8.10;;;;;;;;;;5133017;28;20076;-80
2021/07/23 01:15:29;;;;;;;9.90;8.02;;;;;;;;;;5122283;28;20024;-82
2021/07/23 01:17:55;;;;;;;8.65;7.75;;;;;;;;;;5127726;28;20070;-80
2021/07/23 01:20:21;;;;;;;9.10;7.93;;;;;;;;;;5131662;28;20089;-81
2021/07/23 01:22:48;;;;;;;9.15;7.90;;;;;;;;;;5132052;28;20008;-79
2021/07/23 01:25:14;;;;;;;11.07;9.00;;;;;;;;;;5118481;28;20024;-80
2021/07/23 01:27:46;;;;;;;11.55;9.77;;;;;;;;;;5113280;28;20031;-78
2021/07/23 01:30:14;;;;;;;;;;;;;;;;;;5114246;28;20028;-78
2021/07/23 01:32:40;;;;;;;11.65;9.45;;;;;;;;;;5143502;28;19918;-79
2021/07/23 01:35:07;;;;;;;10.70;8.57;;;;;;;;;;5131344;28;20075;-81
2021/07/23 01:37:33;;;;;;;10.48;9.02;;;;;;;;;;5113843;28;20039;-81
2021/07/23 01:40:00;;;;;;;17.48;11.32;;;;;;;;;;5113734;28;20027;-81
2021/07/23 01:42:30;;;;;;;13.30;11.00;;;;;;;;;;5114502;28;20052;-79
2021/07/23 01:44:56;;;;;;;13.25;10.60;;;;;;;;;;5120339;28;20031;-81
2021/07/23 01:47:22;;;;;;;13.10;10.50;;;;;;;;;;5134335;28;20073;-82
2021/07/23 01:49:48;;;;;;;13.80;10.68;;;;;;;;;;5133522;28;20038;-79
2021/07/23 01:52:14;;;;;;;11.63;10.40;;;;;;;;;;5130260;28;20020;-81
2021/07/23 01:54:41;;;;;;;12.38;9.60;;;;;;;;;;5130933;28;20068;-82
2021/07/23 01:57:07;;;;;;;11.18;9.35;;;;;;;;;;5130493;28;20027;-83
2021/07/23 01:59:33;;;;;;;13.27;10.77;;;;;;;;;;5129758;28;20356;-82
2021/07/23 02:01:59;;;;;;;14.13;10.55;;;;;;;;;;5135721;27;20625;-82
2021/07/23 02:04:25;;;;;;;12.88;10.25;;;;;;;;;;5151686;27;20079;-82
2021/07/23 02:06:52;;;;;;;14.52;10.75;;;;;;;;;;5151782;27;20027;-83
2021/07/23 02:09:18;;;;;;;16.30;10.57;;;;;;;;;;5153065;27;20024;-79
2021/07/23 02:11:44;;;;;;;11.00;9.52;;;;;;;;;;5154873;27;20019;-80
2021/07/23 02:14:11;;;;;;;12.98;10.18;;;;;;;;;;5135211;27;20024;-81
2021/07/23 02:16:38;;;;;;;12.32;9.95;;;;;;;;;;5133835;28;20176;-81
2021/07/23 02:19:06;;;;;;;11.07;9.60;;;;;;;;;;5134991;28;20054;-81
2021/07/23 02:21:34;;;;;;;12.93;9.77;;;;;;;;;;5134709;28;20015;-81
2021/07/23 02:24:00;;;;;;;10.73;9.02;;;;;;;;;;5119338;27;20009;-83
2021/07/23 02:26:26;;;;;;;10.35;8.63;;;;;;;;;;5114609;28;20039;-81
2021/07/23 02:28:52;;;;;;;11.38;9.02;;;;;;;;;;5113737;28;20103;-81
2021/07/23 02:31:18;;;;;;;10.95;8.90;;;;;;;;;;5137993;27;20083;-82
2021/07/23 02:33:44;;;;;;;10.75;8.23;;;;;;;;;;5128823;27;20031;-82
2021/07/23 02:36:10;;;;;;;9.23;8.13;;;;;;;;;;5112637;28;20039;-80
2021/07/23 02:38:36;;;;;;;10.63;8.52;;;;;;;;;;5111912;28;20028;-81
2021/07/23 02:41:03;;;;;;;10.07;8.60;;;;;;;;;;5113279;28;20024;-82
2021/07/23 02:43:29;;;;;;;12.57;10.15;;;;;;;;;;5119233;28;20012;-82
2021/07/23 02:45:55;;;;;;;13.32;10.55;;;;;;;;;;5133152;28;20370;-82
2021/07/23 02:48:21;;;;;;;11.85;10.05;;;;;;;;;;5132572;28;20016;-82
2021/07/23 02:50:47;;;;;;;13.55;10.07;;;;;;;;;;5133097;28;20027;-82
2021/07/23 02:53:13;;;;;;;14.45;11.00;;;;;;;;;;5133029;28;20069;-83
2021/07/23 02:55:40;;;;;;;12.50;10.60;;;;;;;;;;5112591;28;20055;-81
2021/07/23 02:58:09;;;;;;;12.27;10.10;;;;;;;;;;5113752;28;20043;-80
2021/07/23 03:00:35;;;;;;;13.32;10.10;;;;;;;;;;5125862;27;20028;-81
2021/07/23 03:03:04;;;;;;;11.02;9.48;;;;;;;;;;5151037;27;20062;-83
2021/07/23 03:05:30;;;;;;;13.73;11.30;;;;;;;;;;5135943;27;20061;-81
2021/07/23 03:07:56;;;;;;;14.25;11.00;;;;;;;;;;5135009;28;20030;-82
2021/07/23 03:10:22;;;;;;;14.32;11.70;;;;;;;;;;5134207;28;20103;-82
2021/07/23 03:12:48;;;;;;;12.27;10.45;;;;;;;;;;5134149;28;20045;-82
2021/07/23 03:15:14;;;;;;;12.30;10.25;;;;;;;;;;5134060;28;20020;-82
2021/07/23 03:17:41;;;;;;;11.32;9.95;;;;;;;;;;5133528;28;20077;-82
2021/07/23 03:20:07;;;;;;;13.98;10.95;;;;;;;;;;5133415;28;20031;-82
2021/07/23 03:22:33;;;;;;;12.07;9.63;;;;;;;;;;5132574;28;20031;-82
2021/07/23 03:25:02;;;;;;;11.85;10.07;;;;;;;;;;5132563;28;20040;-81
2021/07/23 03:27:29;;;;;;;11.93;9.77;;;;;;;;;;5132830;28;20027;-80
2021/07/23 03:29:56;;;;;;;11.95;9.95;;;;;;;;;;5131301;27;20036;-80
2021/07/23 03:32:22;;;;;;;12.82;10.43;;;;;;;;;;5140986;27;20018;-80
2021/07/23 03:34:48;;;;;;;14.85;10.73;;;;;;;;;;5145568;27;20031;-82
2021/07/23 03:37:14;;;;;;;13.00;9.65;;;;;;;;;;5109583;28;20028;-80
2021/07/23 03:39:40;;;;;;;11.18;9.25;;;;;;;;;;5111138;28;20035;-81
2021/07/23 03:42:06;;;;;;;10.05;8.32;;;;;;;;;;5110621;28;20048;-80
2021/07/23 03:44:32;;;;;;;9.35;7.57;;;;;;;;;;5110127;28;20012;-79
2021/07/23 03:46:58;;;;;;;12.38;9.52;;;;;;;;;;5125718;28;20107;-81
2021/07/23 03:49:24;;;;;;;10.00;8.98;;;;;;;;;;5130008;28;20028;-82
2021/07/23 03:51:50;;;;;;;10.93;9.15;;;;;;;;;;5125438;28;20035;-81
2021/07/23 03:54:16;;;;;;;10.15;9.07;;;;;;;;;;5120654;28;20110;-82
2021/07/23 03:56:42;;;;;;;10.90;9.25;;;;;;;;;;5122332;27;20027;-81
2021/07/23 03:59:08;;;;;;;11.93;8.85;;;;;;;;;;5109379;28;20050;-80
2021/07/23 04:01:34;;;;;;;10.77;9.30;;;;;;;;;;5129632;27;20098;-81
2021/07/23 04:04:00;;;;;;;11.45;8.68;;;;;;;;;;5125799;27;20043;-82
2021/07/23 04:06:28;;;;;;;11.32;8.80;;;;;;;;;;5121862;28;20035;-82
2021/07/23 04:08:55;;;;;;;12.63;9.45;;;;;;;;;;5125154;28;20030;-81
2021/07/23 04:11:33;;;;;;;11.68;9.90;;;;;;;;;;5126081;28;20035;-80
2021/07/23 04:13:59;;;;;;;12.25;9.25;;;;;;;;;;5121873;28;20023;-80
2021/07/23 04:16:25;;;;;;;12.23;9.85;;;;;;;;;;5122512;28;20046;-78
2021/07/23 04:18:53;;;;;;;10.43;8.63;;;;;;;;;;5120675;28;20023;-83
2021/07/23 04:21:26;;;;;;;10.55;9.13;;;;;;;;;;5103517;28;20028;-84
2021/07/23 04:23:52;;;;;;;11.70;10.10;;;;;;;;;;5102076;28;20051;-81
2021/07/23 04:26:18;;;;;;;11.10;9.52;;;;;;;;;;5100067;28;20024;-80
2021/07/23 04:28:44;;;;;;;10.82;8.38;;;;;;;;;;5100793;28;20096;-79
2021/07/23 04:31:10;;;;;;;13.85;10.15;;;;;;;;;;5120249;27;20088;-81
2021/07/23 04:33:38;;;;;;;11.77;9.63;;;;;;;;;;5124189;27;20027;-80
2021/07/23 04:36:04;;;;;;;10.65;9.30;;;;;;;;;;5129413;27;20065;-80
2021/07/23 04:38:30;;;;;;;9.95;8.20;;;;;;;;;;5126579;27;20023;-80
2021/07/23 04:40:56;;;;;;;9.77;8.77;;;;;;;;;;5118756;28;20024;-80
2021/07/23 04:43:22;;;;;;;11.68;8.90;;;;;;;;;;5120738;28;20020;-80
2021/07/23 04:45:48;;;;;;;13.30;9.10;;;;;;;;;;5124046;28;20043;-79
2021/07/23 04:48:14;;;;;;;12.63;9.48;;;;;;;;;;5111676;28;20047;-80
2021/07/23 04:50:41;;;;;;;11.25;9.07;;;;;;;;;;5109142;28;20020;-80
2021/07/23 04:53:07;;;;;;;10.27;8.77;;;;;;;;;;5106207;28;20016;-80
2021/07/23 04:55:34;;;;;;;9.68;8.35;;;;;;;;;;5120909;28;20070;-81
2021/07/23 04:58:01;;;;;;;9.50;8.05;;;;;;;;;;5120534;28;20019;-79
2021/07/23 05:00:27;;;;;;;11.00;8.50;;;;;;;;;;5122630;27;20022;-81
2021/07/23 05:02:53;;;;;;;9.70;7.93;;;;;;;;;;5131305;27;20095;-80
2021/07/23 05:05:21;;;;;;;12.27;8.75;;;;;;;;;;5124120;28;20038;-79
2021/07/23 05:07:50;;;;;;;9.73;8.73;;;;;;;;;;5130140;28;20043;-81
2021/07/23 05:10:16;;;;;;;12.43;9.65;;;;;;;;;;5108764;28;20031;-81
2021/07/23 05:12:43;;;;;;;13.85;10.85;;;;;;;;;;5116304;28;20028;-80
2021/07/23 05:15:10;;;;;;;13.20;10.20;;;;;;;;;;5124033;28;20048;-81
2021/07/23 05:17:36;;;;;;;13.27;10.13;;;;;;;;;;5136139;28;20031;-82
2021/07/23 05:20:02;;;;;;;12.13;9.95;;;;;;;;;;5139916;28;20019;-82
2021/07/23 05:22:29;;;;;;;19.38;12.95;;;;;;;;;;5139435;28;20459;-80
2021/07/23 05:24:56;;;;;;;14.48;11.38;;;;;;;;;;5140251;28;20027;-81
2021/07/23 05:27:22;;;;;;;13.35;9.98;;;;;;;;;;5135285;28;20437;-82
2021/07/23 05:29:48;;;;;;;10.52;9.30;;;;;;;;;;5117497;28;20106;-81
2021/07/23 05:32:14;;;;;;;12.18;9.43;;;;;;;;;;5126712;28;20027;-80
2021/07/23 05:34:40;;;;;;;14.52;10.68;;;;;;;;;;5122171;28;20028;-82
2021/07/23 05:37:06;;;;;;;13.32;10.52;;;;;;;;;;5122811;28;20036;-79
2021/07/23 05:39:32;;;;;;;11.45;10.02;;;;;;;;;;5122725;28;20023;-82
2021/07/23 05:41:58;;;;;;;14.02;11.05;;;;;;;;;;5124607;28;20035;-81
2021/07/23 05:44:24;;;;;;;13.32;10.88;;;;;;;;;;5123259;28;20027;-82
2021/07/23 05:46:50;;;;;;;12.25;9.98;;;;;;;;;;5124756;28;20027;-82
2021/07/23 05:49:16;;;;;;;14.18;10.55;;;;;;;;;;5124502;27;20114;-81
2021/07/23 05:51:42;;;;;;;12.88;10.07;;;;;;;;;;5144232;27;20062;-81
2021/07/23 05:54:08;;;;;;;10.38;9.07;;;;;;;;;;5143779;27;20020;-78
2021/07/23 05:56:34;;;;;;;13.63;10.38;;;;;;;;;;5135274;28;20032;-81
2021/07/23 05:59:01;;;;;;;13.25;9.77;;;;;;;;;;5118615;28;20197;-80
2021/07/23 06:01:27;;;;;;;11.00;9.50;;;;;;;;;;5121745;27;20125;-80
2021/07/23 06:03:53;;;;;;;9.48;8.27;;;;;;;;;;5123095;27;20042;-79
2021/07/23 06:06:19;;;;;;;9.90;8.90;;;;;;;;;;5120223;28;20392;-79
2021/07/23 06:08:45;;;;;;;10.65;9.55;;;;;;;;;;5121488;28;20565;-80
2021/07/23 06:11:11;;;;;;;11.15;9.68;;;;;;;;;;5121882;28;20036;-78
2021/07/23 06:13:38;;;;;;;11.50;9.32;;;;;;;;;;5122319;28;20075;-79
2021/07/23 06:16:05;;;;;;;9.60;8.60;;;;;;;;;;5120898;28;20024;-80
2021/07/23 06:18:31;;;;;;;11.43;9.40;;;;;;;;;;5121437;28;20030;-79
2021/07/23 06:20:57;;;;;;;11.45;9.77;;;;;;;;;;5119798;28;20034;-79
2021/07/23 06:23:23;;;;;;;10.18;8.65;;;;;;;;;;5113648;27;20046;-80
2021/07/23 06:25:49;;;;;;;16.42;11.43;;;;;;;;;;5117936;27;20024;-79
2021/07/23 06:28:15;;;;;;;12.48;10.80;;;;;;;;;;5112288;28;20043;-81
2021/07/23 06:30:41;;;;;;;12.88;10.88;;;;;;;;;;5126260;27;20032;-81
2021/07/23 06:33:07;;;;;;;12.30;10.45;;;;;;;;;;5131809;27;20110;-79
2021/07/23 06:35:33;;;;;;;10.27;9.27;;;;;;;;;;5119472;28;20091;-80
2021/07/23 06:38:00;;;;;;;9.55;8.60;;;;;;;;;;5119495;28;20494;-80
2021/07/23 06:40:26;;;;;;;10.63;9.60;;;;;;;;;;5125033;27;20027;-82
2021/07/23 06:42:52;;;;;;;14.05;12.38;;;;;;;;;;5145841;27;20023;-79
2021/07/23 06:45:18;;;;;;;11.93;10.73;;;;;;;;;;5144642;27;20034;-80
2021/07/23 06:47:44;;;;;;;14.90;12.13;;;;;;;;;;5148133;27;20027;-81
2021/07/23 06:50:13;;;;;;;15.68;11.05;;;;;;;;;;5146733;27;20083;-81
2021/07/23 06:52:40;;;;;;;13.05;11.75;;;;;;;;;;5126156;28;20449;-80
2021/07/23 06:55:06;;;;;;;11.50;10.32;;;;;;;;;;5122470;28;20036;-80
2021/07/23 06:57:35;;;;;;;12.60;10.50;;;;;;;;;;5121266;28;20537;-79
2021/07/23 07:00:01;;;;;;;13.73;11.65;;;;;;;;;;5103465;27;20032;-80
2021/07/23 07:02:30;;;;;;;12.38;11.10;;;;;;;;;;5127910;27;20020;-79
2021/07/23 07:04:58;;;;;;;11.95;10.50;;;;;;;;;;5122010;28;20028;-82
2021/07/23 07:07:24;;;;;;;11.60;10.15;;;;;;;;;;5109817;28;20020;-81
2021/07/23 07:09:51;;;;;;;10.77;9.68;;;;;;;;;;5103349;28;20032;-80
2021/07/23 07:12:17;;;;;;;11.52;10.18;;;;;;;;;;5104244;28;20052;-79
2021/07/23 07:14:43;;;;;;;16.67;11.30;;;;;;;;;;5105422;28;20028;-79
2021/07/23 07:17:10;;;;;;;12.68;10.95;;;;;;;;;;5108336;28;20032;-79
2021/07/23 07:19:36;;;;;;;17.55;11.55;;;;;;;;;;5103897;28;20087;-78
2021/07/23 07:22:02;;;;;;;12.65;10.30;;;;;;;;;;5103374;28;20024;-80
2021/07/23 07:24:28;;;;;;;10.82;9.70;;;;;;;;;;5103423;28;20149;-81
2021/07/23 07:26:54;;;;;;;13.82;10.80;;;;;;;;;;5103804;28;20046;-79
2021/07/23 07:29:21;;;;;;;12.98;10.38;;;;;;;;;;5101664;28;20024;-79
2021/07/23 07:31:47;;;;;;;11.75;10.55;;;;;;;;;;5098403;28;20391;-79
2021/07/23 07:34:13;;;;;;;16.98;10.98;;;;;;;;;;5141564;27;20102;-79
2021/07/23 07:36:40;;;;;;;11.82;10.63;;;;;;;;;;5142585;27;20034;-78
2021/07/23 07:39:06;;;;;;;15.10;10.98;;;;;;;;;;5105677;27;20028;-79
2021/07/23 07:41:32;;;;;;;11.57;10.20;;;;;;;;;;5101352;28;20103;-79
2021/07/23 07:43:58;;;;;;;15.65;11.07;;;;;;;;;;5103709;28;20028;-80
2021/07/23 07:46:25;;;;;;;13.13;10.32;;;;;;;;;;5105936;28;20043;-78
2021/07/23 07:48:51;;;;;;;15.80;12.57;;;;;;;;;;5104543;28;20041;-78
2021/07/23 07:51:20;;;;;;;17.23;12.32;;;;;;;;;;5104034;28;20392;-80
2021/07/23 07:53:46;;;;;;;16.80;13.63;;;;;;;;;;5105112;28;20027;-80
2021/07/23 07:56:13;;;;;;;15.90;11.85;;;;;;;;;;5103147;28;20054;-81
2021/07/23 07:58:39;;;;;;;12.52;11.13;;;;;;;;;;5108488;28;20027;-79
2021/07/23 08:01:18;;;;;;;19.65;12.93;;;;;;;;;;5129954;27;20511;-81
2021/07/23 08:03:45;;;;;;;14.50;12.02;;;;;;;;;;5139883;27;20019;-78
2021/07/23 08:06:22;;;;;;;15.77;11.90;;;;;;;;;;5143814;27;20197;-79
2021/07/23 08:08:49;;;;;;;13.38;10.98;;;;;;;;;;5130078;27;20012;-80
2021/07/23 08:11:15;;;;;;;17.15;11.30;;;;;;;;;;5102810;28;20078;-80
2021/07/23 08:13:47;;;;;;;17.38;11.95;;;;;;;;;;5102556;28;20028;-81
2021/07/23 08:16:13;;;;;;;12.88;10.70;;;;;;;;;;5102420;28;20119;-80
2021/07/23 08:18:39;;;;;;;12.38;10.98;;;;;;;;;;5103522;28;20512;-79
2021/07/23 08:21:09;;;;;;;16.27;11.73;;;;;;;;;;5123267;28;20036;-79
2021/07/23 08:23:38;;;;;;;15.65;12.63;;;;;;;;;;5121431;28;20031;-78
2021/07/23 08:26:04;;;;;;;15.93;11.93;;;;;;;;;;5119860;28;20016;-79
2021/07/23 08:28:31;;;;;;;16.73;12.48;;;;;;;;;;5121335;28;20043;-79
2021/07/23 08:31:01;;;;;;;17.13;12.27;;;;;;;;;;5120896;28;20496;-79
2021/07/23 08:33:30;;;;;;;13.40;11.43;;;;;;;;;;5119108;28;20020;-79
2021/07/23 08:35:56;;;;;;;12.68;11.23;;;;;;;;;;5118638;28;20027;-79
2021/07/23 08:38:22;;;;;;;12.13;10.88;;;;;;;;;;5118301;28;20026;-78
2021/07/23 08:40:51;;;;;;;13.20;11.15;;;;;;;;;;5105249;28;20070;-81
2021/07/23 08:43:18;;;;;;;15.35;10.55;;;;;;;;;;5101033;28;20337;-81
2021/07/23 08:45:44;;;;;;;12.02;10.13;;;;;;;;;;5096822;28;20077;-80
2021/07/23 08:48:10;;;;;;;12.93;11.23;;;;;;;;;;5107727;28;20106;-79
2021/07/23 08:50:37;;;;;;;12.88;10.55;;;;;;;;;;5118213;28;20023;-79
2021/07/23 08:53:09;;;;;;;11.40;10.07;;;;;;;;;;5119321;28;20035;-79
2021/07/23 08:55:36;;;;;;;12.00;10.75;;;;;;;;;;5130409;28;20050;-80
2021/07/23 08:58:02;;;;;;;12.95;11.32;;;;;;;;;;5128396;28;20027;-80
2021/07/23 09:00:28;;;;;;;11.98;10.07;;;;;;;;;;5128059;27;20027;-79
2021/07/23 09:02:58;;;;;;;13.82;11.02;;;;;;;;;;5136068;27;20015;-80
2021/07/23 09:05:41;;;;;;;15.35;11.73;;;;;;;;;;5143002;28;20028;-79
2021/07/23 09:08:13;;;;;;;14.93;11.48;;;;;;;;;;5138528;27;20020;-79
2021/07/23 09:10:39;;;;;;;12.82;11.40;;;;;;;;;;5120630;28;20023;-79
2021/07/23 09:13:08;;;;;;;12.15;10.85;;;;;;;;;;5121152;28;20417;-79
2021/07/23 09:15:37;;;;;;;13.73;10.20;;;;;;;;;;5123530;28;20024;-80
2021/07/23 09:18:05;;;;;;;13.48;11.35;;;;;;;;;;5123485;28;20032;-80
2021/07/23 09:20:31;;;;;;;12.65;11.35;;;;;;;;;;5101572;28;20047;-79
2021/07/23 09:23:01;;;;;;;12.30;10.98;;;;;;;;;;5101631;28;20023;-79
2021/07/23 09:25:35;;;;;;;14.23;11.80;;;;;;;;;;5101639;28;20392;-80
2021/07/23 09:28:01;;;;;;;13.98;10.73;;;;;;;;;;5100476;28;20219;-79
2021/07/23 09:30:49;;;;;;;13.75;10.85;;;;;;;;;;5122042;28;20042;-79
2021/07/23 09:33:23;;;;;;;13.70;11.80;;;;;;;;;;5135152;28;20035;-80
2021/07/23 09:35:59;;;;;;;12.50;10.73;;;;;;;;;;5143650;28;20581;-79
2021/07/23 09:38:26;;;;;;;12.43;11.13;;;;;;;;;;5142647;28;20222;-79
2021/07/23 09:40:52;;;;;;;12.48;11.25;;;;;;;;;;5124842;28;20043;-79
2021/07/23 09:43:29;;;;;;;15.10;11.38;;;;;;;;;;5124146;28;20024;-81
2021/07/23 09:45:55;;;;;;;14.35;11.82;;;;;;;;;;5123471;28;20085;-79
2021/07/23 09:48:21;;;;;;;13.40;11.95;;;;;;;;;;5125250;28;20020;-80
2021/07/23 09:50:47;;;;;;;13.07;11.70;;;;;;;;;;5120656;28;20028;-79
2021/07/23 09:53:15;;;;;;;16.80;12.02;;;;;;;;;;5118518;28;20028;-80
2021/07/23 09:55:44;;;;;;;13.88;11.57;;;;;;;;;;5125557;28;20499;-80
2021/07/23 09:58:12;;;;;;;12.43;11.13;;;;;;;;;;5122441;28;20024;-79
2021/07/23 10:00:39;;;;;;;13.80;11.70;;;;;;;;;;5124397;28;20322;-80
2021/07/23 10:03:07;;;;;;;15.65;11.73;;;;;;;;;;5118952;28;20031;-79
2021/07/23 10:05:37;;;;;;;14.27;11.30;;;;;;;;;;5101283;28;20048;-80
2021/07/23 10:08:08;;;;;;;12.70;11.40;;;;;;;;;;5104596;28;20536;-79
2021/07/23 10:10:34;;;;;;;12.25;10.93;;;;;;;;;;5121376;28;20020;-80
2021/07/23 10:13:01;;;;;;;12.88;11.38;;;;;;;;;;5101693;28;20028;-79
2021/07/23 10:15:29;;;;;;;12.50;11.23;;;;;;;;;;5101119;28;20035;-80
2021/07/23 10:17:55;;;;;;;12.32;11.07;;;;;;;;;;5100336;28;20062;-79
2021/07/23 10:20:21;;;;;;;17.02;12.30;;;;;;;;;;5102835;28;20072;-79
2021/07/23 10:22:51;;;;;;;16.25;11.77;;;;;;;;;;5105799;28;20020;-79
2021/07/23 10:25:18;;;;;;;14.85;11.85;;;;;;;;;;5100236;28;20024;-80
2021/07/23 10:27:46;;;;;;;12.88;11.50;;;;;;;;;;5099707;28;20024;-80
2021/07/23 10:30:32;;;;;;;11.82;10.57;;;;;;;;;;5104208;27;20027;-80
2021/07/23 10:32:58;;;;;;;12.75;11.35;;;;;;;;;;5127452;27;20027;-80
2021/07/23 10:35:24;;;;;;;12.52;10.93;;;;;;;;;;5120683;28;20019;-80
2021/07/23 10:37:52;;;;;;;12.80;10.93;;;;;;;;;;5118858;27;20039;-80
2021/07/23 10:40:19;;;;;;;12.55;11.25;;;;;;;;;;5126944;27;20493;-80
2021/07/23 10:42:46;;;;;;;14.32;10.77;;;;;;;;;;5120657;28;20547;-80
2021/07/23 10:45:14;;;;;;;12.48;11.18;;;;;;;;;;5132257;27;20486;-80
2021/07/23 10:47:48;;;;;;;13.18;11.60;;;;;;;;;;5139582;27;20031;-81
2021/07/23 10:50:16;;;;;;;12.57;11.27;;;;;;;;;;5138655;27;20073;-80
2021/07/23 10:52:44;;;;;;;13.73;11.32;;;;;;;;;;5121009;28;20054;-81
2021/07/23 10:55:12;;;;;;;13.27;11.75;;;;;;;;;;5119639;28;20083;-81
2021/07/23 10:57:38;;;;;;;12.70;11.20;;;;;;;;;;5100864;28;20158;-80
2021/07/23 11:00:04;;;;;;;11.98;10.73;;;;;;;;;;5110138;27;20016;-80
2021/07/23 11:02:30;;;;;;;13.13;11.77;;;;;;;;;;5129834;27;20020;-80
2021/07/23 11:05:10;;;;;;;14.90;11.82;;;;;;;;;;5121545;27;20020;-81
2021/07/23 11:07:37;;;;;;;13.40;12.02;;;;;;;;;;5124946;27;20111;-81
2021/07/23 11:10:03;;;;;;;13.80;11.25;;;;;;;;;;5119877;27;20032;-79
2021/07/23 11:12:33;;;;;;;13.57;11.52;;;;;;;;;;5136564;27;20448;-79
2021/07/23 11:15:00;;;;;;;14.98;12.10;;;;;;;;;;5139598;27;20205;-79
2021/07/23 11:17:27;;;;;;;13.32;10.52;;;;;;;;;;5123919;27;20027;-80
2021/07/23 11:20:04;;;;;;;12.90;11.23;;;;;;;;;;5116135;28;20016;-80
2021/07/23 11:22:33;;;;;;;13.20;11.27;;;;;;;;;;5117665;28;20402;-80
2021/07/23 11:25:05;;;;;;;12.50;11.23;;;;;;;;;;5119176;28;20099;-80
2021/07/23 11:27:32;;;;;;;13.85;10.65;;;;;;;;;;5119100;28;20027;-79
2021/07/23 11:29:59;;;;;;;12.35;11.02;;;;;;;;;;5124827;27;20030;-80
2021/07/23 11:32:27;;;;;;;12.00;9.85;;;;;;;;;;5137874;27;20061;-80
2021/07/23 11:35:08;;;;;;;12.68;10.50;;;;;;;;;;5137834;27;20023;-79
2021/07/23 11:37:36;;;;;;;12.43;11.05;;;;;;;;;;5142771;27;20031;-80
2021/07/23 11:40:09;;;;;;;11.70;10.35;;;;;;;;;;5121499;27;20384;-80
2021/07/23 11:42:36;;;;;;;14.63;10.50;;;;;;;;;;5120334;28;20168;-79
2021/07/23 11:45:03;;;;;;;17.15;10.73;;;;;;;;;;5117018;28;20039;-79
2021/07/23 11:47:33;;;;;;;14.02;11.40;;;;;;;;;;5120766;28;20396;-79
2021/07/23 11:50:01;;;;;;;11.60;10.43;;;;;;;;;;5123982;27;20044;-79
2021/07/23 11:52:27;;;;;;;12.77;10.90;;;;;;;;;;5133177;27;20365;-80
2021/07/23 11:55:03;;;;;;;12.30;10.55;;;;;;;;;;5098613;28;20138;-80
2021/07/23 11:57:30;;;;;;;10.23;9.18;;;;;;;;;;5113544;28;20031;-80
2021/07/23 11:59:56;;;;;;;10.98;9.95;;;;;;;;;;5118464;28;20084;-80
2021/07/23 12:02:26;;;;;;;11.85;10.30;;;;;;;;;;5121967;27;20038;-80
2021/07/23 12:05:02;;;;;;;11.73;10.52;;;;;;;;;;5097890;28;20450;-80
2021/07/23 12:07:28;;;;;;;12.05;10.85;;;;;;;;;;5097747;28;20024;-81
2021/07/23 12:09:55;;;;;;;12.10;10.65;;;;;;;;;;5112888;27;20043;-80
2021/07/23 12:12:21;;;;;;;12.75;10.63;;;;;;;;;;5121308;28;20077;-80
2021/07/23 12:14:47;;;;;;;11.90;10.68;;;;;;;;;;5115008;28;20016;-80
2021/07/23 12:17:14;;;;;;;11.60;10.25;;;;;;;;;;5107088;28;20031;-80
2021/07/23 12:19:40;;;;;;;11.70;10.60;;;;;;;;;;5120060;28;20076;-80
2021/07/23 12:22:14;;;;;;;10.77;9.68;;;;;;;;;;5113441;28;20133;-81
2021/07/23 12:24:40;;;;;;;14.82;10.65;;;;;;;;;;5096874;28;20024;-80
2021/07/23 12:27:16;;;;;;;11.98;10.75;;;;;;;;;;5097360;28;20039;-81
2021/07/23 12:29:42;;;;;;;13.13;10.38;;;;;;;;;;5095552;28;20045;-81
2021/07/23 12:32:26;;;;;;;19.80;11.65;;;;;;;;;;5121412;27;20024;-81
2021/07/23 12:35:02;;;;;;;13.75;10.20;;;;;;;;;;5121389;27;20444;-81
2021/07/23 12:37:28;;;;;;;13.25;10.27;;;;;;;;;;5116243;28;20026;-80
2021/07/23 12:40:00;;;;;;;12.65;10.77;;;;;;;;;;5116955;28;20028;-79
2021/07/23 12:42:27;;;;;;;13.25;11.13;;;;;;;;;;5117295;28;20012;-79
2021/07/23 12:44:53;;;;;;;11.98;10.60;;;;;;;;;;5117854;28;20374;-80
2021/07/23 12:47:20;;;;;;;13.38;11.73;;;;;;;;;;5118116;28;20028;-81
2021/07/23 12:49:47;;;;;;;10.52;9.60;;;;;;;;;;5117426;28;20421;-80
2021/07/23 12:52:13;;;;;;;11.82;10.43;;;;;;;;;;5120654;27;20053;-81
2021/07/23 12:54:40;;;;;;;12.07;10.23;;;;;;;;;;5134315;27;20100;-80
2021/07/23 12:57:16;;;;;;;13.38;11.18;;;;;;;;;;5132929;27;20023;-80
2021/07/23 12:59:43;;;;;;;12.98;11.55;;;;;;;;;;5130996;27;20027;-81
2021/07/23 13:02:09;;;;;;;15.07;10.48;;;;;;;;;;5133957;27;20022;-80
2021/07/23 13:04:35;;;;;;;17.42;11.32;;;;;;;;;;5120513;27;20019;-81
2021/07/23 13:07:01;;;;;;;14.18;10.10;;;;;;;;;;5121097;28;20023;-80
2021/07/23 13:09:27;;;;;;;11.43;10.23;;;;;;;;;;5128949;28;20028;-81
2021/07/23 13:11:53;;;;;;;11.65;10.45;;;;;;;;;;5113789;28;20028;-81
2021/07/23 13:14:21;;;;;;;12.07;10.68;;;;;;;;;;5096196;28;20024;-79
2021/07/23 13:16:47;;;;;;;12.43;10.02;;;;;;;;;;5096366;28;20024;-80
2021/07/23 13:19:13;;;;;;;10.77;9.63;;;;;;;;;;5097129;28;20100;-81
2021/07/23 13:21:39;;;;;;;13.35;11.27;;;;;;;;;;5108652;28;20027;-80
2021/07/23 13:24:05;;;;;;;13.27;10.95;;;;;;;;;;5116058;28;20020;-81
2021/07/23 13:26:32;;;;;;;11.70;10.50;;;;;;;;;;5116560;28;20152;-80
2021/07/23 13:28:58;;;;;;;11.55;10.35;;;;;;;;;;5119047;28;20341;-80
2021/07/23 13:31:25;;;;;;;11.60;9.90;;;;;;;;;;5131523;28;20438;-81
2021/07/23 13:33:54;;;;;;;13.10;10.73;;;;;;;;;;5120297;28;20039;-80
2021/07/23 13:36:29;;;;;;;12.13;10.80;;;;;;;;;;5117952;28;20028;-80
2021/07/23 13:39:07;;;;;;;13.90;10.77;;;;;;;;;;5101523;28;20032;-80
2021/07/23 13:41:35;;;;;;;10.98;9.90;;;;;;;;;;5098876;28;20135;-79
2021/07/23 13:44:03;;;;;;;12.75;10.27;;;;;;;;;;5116505;28;20020;-79
2021/07/23 13:46:30;;;;;;;10.65;9.55;;;;;;;;;;5116491;28;20383;-80
2021/07/23 13:48:56;;;;;;;10.93;9.90;;;;;;;;;;5116593;28;20028;-80
2021/07/23 13:51:22;;;;;;;14.15;10.57;;;;;;;;;;5116175;28;20024;-80
2021/07/23 13:53:48;;;;;;;11.80;10.38;;;;;;;;;;5097233;28;20032;-80
2021/07/23 13:56:14;;;;;;;11.95;10.75;;;;;;;;;;5098702;28;20171;-80
2021/07/23 13:58:41;;;;;;;11.63;10.43;;;;;;;;;;5099770;28;20095;-81
2021/07/23 14:01:07;;;;;;;11.27;9.65;;;;;;;;;;5114197;27;20019;-81
2021/07/23 14:03:34;;;;;;;11.57;10.38;;;;;;;;;;5138337;27;20024;-82
2021/07/23 14:06:00;;;;;;;12.57;10.13;;;;;;;;;;5131111;27;20020;-80
2021/07/23 14:08:26;;;;;;;14.18;11.00;;;;;;;;;;5119630;28;20023;-80
2021/07/23 14:10:52;;;;;;;11.68;10.48;;;;;;;;;;5119810;28;20031;-79
2021/07/23 14:13:19;;;;;;;12.25;9.70;;;;;;;;;;5118561;28;20027;-81
2021/07/23 14:15:45;;;;;;;12.30;10.68;;;;;;;;;;5119986;28;20028;-80
2021/07/23 14:18:11;;;;;;;12.07;10.35;;;;;;;;;;5119340;28;20039;-80
2021/07/23 14:20:37;;;;;;;13.18;10.43;;;;;;;;;;5120815;28;20047;-80
2021/07/23 14:23:04;;;;;;;12.52;10.70;;;;;;;;;;5115615;28;20076;-80
2021/07/23 14:25:30;;;;;;;12.25;10.05;;;;;;;;;;5098773;28;20073;-80